Terminal Aerodrome Forecast
Issued by NWS

Home | Current Version | Previous Version | Text Only | Print | Product List | Glossary On
Versions: 1 2 3 4 5 6 7 8 9 10 11 12 13 14 15 16 17
000
FTUS43 KICT 271100
TAFRSL
TAF
KRSL 271120Z 2712/2812 19006KT P6SM VCSH SCT070 BKN250
     FM271600 18012KT P6SM SCT070 BKN250
     FM280100 15008KT P6SM VCTS BKN060CB OVC200=

USA.gov is the U.S. government's official web portal to all federal, state and local government web resources and services.